Portada
METAR-TAF:

METAR-TAF

Aeroports :

Osca, Espanya

latitud: 42-04-32N, longitud: 0-18-58W, altitud: 539 m

Observació

L'informe es va fer fa 20 minuts, a les 01:00 UTC
Vent 2 kt amb direcció variable
Temperatura 2°C
Humitat 100%
Pressió 1034 hPa
Visibilitat: 9000 m

METAR: LEHC 230100Z AUTO VRB02KT 9000 NCD 02/02 Q1034

Hora: 02:20 (01:20 UTC)

Pronòstic

L'informe es va fer fa 11 hores i 20 minuts, a les 14:00 UTC
Pronòstic vàlid del 22 a les 15 UTC al 23 a les 15 UTC
Vent 4 kt amb direcció variable
Visibilitat 10 km o més
Escasses núvols a una alçada de 4000 ft
Probabilitat 30% :
Temporalment
l' 23 a les 02 UTC al 23 a les 09 UTC
Visibilitat: 1000 m
boira en bancs

TAF: LEHC 221400Z 2215/2315 VRB04KT 9999 FEW040 TX19/2313Z TN02/2306Z PROB30 TEMPO 2302/2309 1000 BCFG

Observacions i pronòstics meteorològics de més de 4000 aeroports (METAR i TAF).

Les estacions disponibles són els punts grocs i vermells al mapa.

Posi el ratolí al punt desitjat per veure el nom de l'estació.

Feu clic per veure les observacions i els pronòstics meteorològics.

Per canviar el mapa: feu clic els botons verds amb una creu de color negre per apropar; al botó verd amb un guió per allunyar la imatge; o en les fletxes verdes per a mapes adjacents.


METAR-TAF: